createdAt,value
2019-02-16T00:01:30.250Z,68.78
2019-02-16T00:03:59.450Z,62.58
2019-02-16T00:06:29.090Z,66.17
2019-02-16T00:08:58.492Z,64.00
2019-02-16T00:11:27.749Z,64.20
2019-02-16T00:13:57.371Z,63.92
2019-02-16T00:16:27.170Z,62.40
2019-02-16T00:18:56.492Z,68.55
2019-02-16T00:21:25.771Z,67.55
2019-02-16T00:23:56.091Z,65.85
2019-02-16T00:26:25.290Z,67.32
2019-02-16T00:28:54.565Z,63.68
2019-02-16T00:31:23.694Z,60.88
2019-02-16T00:33:52.891Z,59.25
2019-02-16T00:36:22.293Z,59.33
2019-02-16T00:38:51.805Z,66.70
2019-02-16T00:41:21.291Z,59.70
2019-02-16T00:43:50.507Z,60.15
2019-02-16T00:46:19.962Z,64.62
2019-02-16T00:48:49.309Z,61.60
2019-02-16T00:51:18.686Z,62.30
2019-02-16T00:53:48.124Z,66.25
2019-02-16T00:56:17.402Z,68.75
2019-02-16T00:58:49.962Z,65.20
2019-02-16T01:01:22.651Z,61.10
2019-02-16T01:03:56.770Z,70.83
2019-02-16T01:06:27.290Z,67.67
2019-02-16T01:08:56.610Z,63.13
2019-02-16T01:11:28.051Z,63.38
2019-02-16T01:13:58.050Z,63.28
2019-02-16T01:16:27.971Z,60.05
2019-02-16T01:19:02.290Z,58.20
2019-02-16T01:21:33.402Z,54.65
2019-02-16T01:24:03.117Z,62.38
2019-02-16T01:26:34.883Z,59.75
2019-02-16T01:29:06.851Z,66.87
2019-02-16T01:31:36.811Z,55.95
2019-02-16T01:34:06.370Z,62.35
2019-02-16T01:36:37.091Z,57.70
2019-02-16T01:39:07.291Z,66.82
2019-02-16T01:41:36.811Z,63.78
2019-02-16T01:44:24.763Z,65.87
2019-02-16T01:46:55.290Z,68.22
2019-02-16T01:49:25.010Z,65.30
2019-02-16T01:51:56.892Z,70.37
2019-02-16T01:54:29.531Z,68.17
2019-02-16T01:57:00.451Z,65.50
2019-02-16T01:59:30.092Z,64.20
2019-02-16T02:02:00.613Z,68.55
2019-02-16T02:04:36.526Z,69.30
2019-02-16T02:07:06.450Z,66.20
2019-02-16T02:09:35.682Z,65.28
2019-02-16T02:12:07.330Z,61.77
2019-02-16T02:14:36.746Z,63.35
2019-02-16T02:17:06.134Z,60.10
2019-02-16T02:19:35.606Z,57.08
2019-02-16T02:22:04.811Z,66.15
2019-02-16T02:24:34.210Z,66.55
2019-02-16T02:27:03.811Z,61.55
2019-02-16T02:29:34.653Z,67.03
2019-02-16T02:32:04.090Z,66.55
2019-02-16T02:34:42.694Z,69.00
2019-02-16T02:37:14.722Z,69.97
2019-02-16T02:39:44.332Z,70.42
2019-02-16T02:42:14.051Z,68.25
2019-02-16T02:44:43.971Z,59.15
2019-02-16T02:47:13.569Z,63.17
2019-02-16T02:49:42.972Z,61.42
2019-02-16T02:52:12.407Z,58.17
2019-02-16T02:54:42.483Z,61.88
2019-02-16T02:57:11.874Z,59.15
2019-02-16T02:59:41.923Z,61.00
2019-02-16T03:02:11.723Z,58.60
2019-02-16T03:04:42.372Z,58.95
2019-02-16T03:07:11.602Z,61.02
2019-02-16T03:09:41.178Z,70.17
2019-02-16T03:12:10.850Z,68.80
2019-02-16T03:14:42.603Z,71.30
2019-02-16T03:17:12.653Z,67.70
2019-02-16T03:19:42.123Z,61.40
2019-02-16T03:22:11.651Z,67.45
2019-02-16T03:24:42.883Z,67.90
2019-02-16T03:27:30.331Z,60.17
2019-02-16T03:30:11.579Z,59.03
2019-02-16T03:33:00.724Z,61.08
2019-02-16T03:35:39.574Z,54.30
2019-02-16T03:38:15.158Z,59.58
2019-02-16T03:40:47.882Z,55.05
2019-02-16T03:43:17.089Z,55.43
2019-02-16T03:45:48.455Z,54.33
2019-02-16T03:48:18.162Z,57.00
2019-02-16T03:50:47.528Z,58.80
2019-02-16T03:53:16.965Z,58.17
2019-02-16T03:55:46.842Z,61.10
2019-02-16T03:58:16.164Z,61.77
2019-02-16T04:00:45.641Z,59.58
2019-02-16T04:03:14.966Z,59.73
2019-02-16T04:05:44.290Z,58.25
2019-02-16T04:08:13.341Z,54.90
2019-02-16T04:10:42.536Z,55.28
2019-02-16T04:13:12.054Z,57.88
2019-02-16T04:15:41.330Z,58.15
2019-02-16T04:18:10.972Z,58.50
2019-02-16T04:20:40.189Z,65.00
2019-02-16T04:23:09.450Z,61.68
2019-02-16T04:25:40.208Z,58.80
2019-02-16T04:28:09.604Z,58.35
2019-02-16T04:30:39.003Z,48.17
2019-02-16T04:33:08.490Z,54.53
2019-02-16T04:35:37.690Z,47.88
2019-02-16T04:38:07.013Z,51.63
2019-02-16T04:40:36.163Z,50.95
2019-02-16T04:43:05.570Z,54.88
2019-02-16T04:45:34.771Z,57.73
2019-02-16T04:48:04.109Z,55.12
2019-02-16T04:50:33.362Z,55.10
2019-02-16T04:53:02.762Z,58.70
2019-02-16T04:55:32.090Z,53.55
2019-02-16T04:58:01.442Z,55.92
2019-02-16T05:00:31.006Z,54.50
2019-02-16T05:03:01.291Z,52.85
2019-02-16T05:05:35.130Z,53.85
2019-02-16T05:08:04.804Z,54.05
2019-02-16T05:10:34.010Z,46.85
2019-02-16T05:13:03.403Z,55.85
2019-02-16T05:15:32.723Z,51.10
2019-02-16T05:18:02.122Z,51.92
2019-02-16T05:20:31.532Z,50.03
2019-02-16T05:23:00.811Z,45.43
2019-02-16T05:25:30.211Z,51.73
2019-02-16T05:27:59.402Z,48.87
2019-02-16T05:30:28.589Z,53.83
2019-02-16T05:32:57.571Z,52.73
2019-02-16T05:35:27.122Z,49.27
2019-02-16T05:37:56.289Z,47.25
2019-02-16T05:40:25.882Z,44.55
2019-02-16T05:42:55.132Z,58.75
2019-02-16T05:45:24.788Z,52.38
2019-02-16T05:47:54.064Z,51.40
2019-02-16T05:50:24.718Z,47.23
2019-02-16T05:52:54.775Z,54.25
2019-02-16T05:55:24.361Z,54.50
2019-02-16T05:57:53.699Z,49.15
2019-02-16T06:00:24.566Z,49.45
2019-02-16T06:02:53.883Z,47.48
2019-02-16T06:05:23.282Z,49.83
2019-02-16T06:07:53.002Z,46.37
2019-02-16T06:10:22.327Z,54.98
2019-02-16T06:12:51.730Z,65.95
2019-02-16T06:15:21.082Z,114.20
2019-02-16T06:17:50.603Z,118.62
2019-02-16T06:20:20.010Z,64.87
2019-02-16T06:22:49.201Z,49.95
2019-02-16T06:25:18.739Z,49.08
2019-02-16T06:27:48.086Z,65.40
2019-02-16T06:30:17.401Z,59.45
2019-02-16T06:32:46.964Z,59.15
2019-02-16T06:35:20.617Z,49.10
2019-02-16T06:40:18.480Z,51.92
2019-02-16T06:42:59.971Z,53.33
2019-02-16T06:45:31.333Z,48.23
2019-02-16T06:48:09.530Z,48.15
2019-02-16T06:50:45.450Z,41.15
2019-02-16T06:53:14.987Z,47.43
2019-02-16T06:55:56.290Z,40.90
2019-02-16T06:58:31.013Z,44.60
2019-02-16T07:01:00.926Z,46.92
2019-02-16T07:03:30.922Z,39.70
2019-02-16T07:06:03.929Z,44.58
2019-02-16T07:08:33.081Z,39.50
2019-02-16T07:11:02.491Z,42.15
2019-02-16T07:13:34.882Z,43.80
2019-02-16T07:16:24.225Z,35.85
2019-02-16T07:19:06.890Z,41.18
2019-02-16T07:21:37.150Z,41.63
2019-02-16T07:24:06.352Z,40.25
2019-02-16T07:26:35.787Z,39.92
2019-02-16T07:29:13.053Z,37.17
2019-02-16T07:31:42.369Z,33.20
2019-02-16T07:34:11.654Z,34.10
2019-02-16T07:36:47.081Z,38.35
2019-02-16T07:39:16.429Z,43.35
2019-02-16T07:41:45.811Z,39.38
2019-02-16T07:44:19.628Z,40.67
2019-02-16T07:46:59.650Z,35.68
2019-02-16T07:49:42.769Z,42.65
2019-02-16T07:52:29.690Z,39.30
2019-02-16T07:55:06.371Z,40.33
2019-02-16T07:57:43.451Z,36.53
2019-02-16T08:00:14.289Z,37.67
2019-02-16T08:02:57.218Z,37.58
2019-02-16T08:05:28.010Z,36.48
2019-02-16T08:07:59.091Z,40.58
2019-02-16T08:10:35.322Z,39.33
2019-02-16T08:13:22.129Z,32.50
2019-02-16T08:15:59.211Z,32.50
2019-02-16T08:18:47.890Z,29.55
2019-02-16T08:21:24.742Z,36.65
2019-02-16T08:23:58.125Z,36.08
2019-02-16T08:26:32.052Z,31.90
2019-02-16T08:29:04.342Z,31.45
2019-02-16T08:31:35.556Z,26.82
2019-02-16T08:34:09.162Z,28.85
2019-02-16T08:36:41.404Z,25.55
2019-02-16T08:39:15.050Z,29.25
2019-02-16T08:41:48.929Z,32.20
2019-02-16T08:47:08.401Z,42.10
2019-02-16T08:49:39.130Z,45.40
2019-02-16T08:52:12.851Z,41.85
2019-02-16T08:54:52.611Z,32.30
2019-02-16T08:57:23.415Z,41.45
2019-02-16T08:59:57.320Z,39.50
2019-02-16T09:05:07.011Z,40.70
2019-02-16T09:07:38.172Z,37.35
2019-02-16T09:10:09.814Z,37.90
2019-02-16T09:12:44.810Z,29.02
2019-02-16T09:15:33.572Z,27.58
2019-02-16T09:18:10.335Z,18.85
2019-02-16T09:20:59.132Z,25.65
2019-02-16T09:23:36.496Z,29.57
2019-02-16T09:26:07.133Z,29.55
2019-02-16T09:28:41.586Z,35.38
2019-02-16T09:31:30.971Z,31.62
2019-02-16T09:34:02.040Z,35.58
2019-02-16T09:36:32.987Z,26.87
2019-02-16T09:39:09.524Z,28.62
2019-02-16T09:41:42.970Z,26.23
2019-02-16T09:44:32.208Z,22.52
2019-02-16T09:47:09.299Z,23.65
2019-02-16T09:49:46.212Z,23.95
2019-02-16T09:52:16.815Z,22.05
2019-02-16T09:55:07.406Z,23.18
2019-02-16T09:57:38.170Z,23.25
2019-02-16T10:00:11.316Z,23.10
2019-02-16T10:02:48.131Z,23.63
2019-02-16T10:05:34.272Z,28.15
2019-02-16T10:08:11.585Z,25.27
2019-02-16T10:10:42.398Z,23.15
2019-02-16T10:13:29.252Z,26.55
2019-02-16T10:16:08.974Z,22.75
2019-02-16T10:18:49.130Z,22.25
2019-02-16T10:21:20.892Z,26.30
2019-02-16T10:23:54.187Z,24.00
2019-02-16T10:26:34.531Z,22.15
2019-02-16T10:29:11.133Z,30.68
2019-02-16T10:31:58.003Z,48.60
2019-02-16T10:34:31.531Z,22.27
2019-02-16T10:37:05.614Z,24.15
2019-02-16T10:39:36.450Z,18.85
2019-02-16T10:42:09.924Z,21.27
2019-02-16T10:44:46.428Z,19.92
2019-02-16T10:47:20.406Z,21.07
2019-02-16T10:52:29.564Z,17.27
2019-02-16T10:55:01.334Z,17.40
2019-02-16T10:57:38.175Z,14.95
2019-02-16T11:00:20.130Z,16.48
2019-02-16T11:02:56.690Z,14.65
2019-02-16T11:05:30.482Z,19.25
2019-02-16T11:08:01.285Z,15.15
2019-02-16T11:10:37.882Z,13.65
2019-02-16T11:13:14.763Z,12.45
2019-02-16T11:15:45.493Z,16.97
2019-02-16T11:18:25.531Z,23.80
2019-02-16T11:21:11.331Z,14.20
2019-02-16T11:23:42.043Z,15.18
2019-02-16T11:26:18.531Z,17.87
2019-02-16T11:29:04.505Z,15.00
2019-02-16T11:31:51.317Z,21.95
2019-02-16T11:34:30.970Z,18.57
2019-02-16T11:37:01.563Z,16.30
2019-02-16T11:39:48.288Z,19.23
2019-02-16T11:42:35.211Z,20.10
2019-02-16T11:45:09.851Z,20.50
2019-02-16T11:47:40.490Z,19.55
2019-02-16T11:50:20.736Z,23.87
2019-02-16T11:53:07.853Z,22.50
2019-02-16T11:55:55.053Z,24.15
2019-02-16T11:58:41.031Z,23.98
2019-02-16T12:01:11.856Z,22.37
2019-02-16T12:03:58.812Z,21.62
2019-02-16T12:06:41.931Z,23.75
2019-02-16T12:09:18.064Z,21.40
2019-02-16T12:11:57.610Z,21.17
2019-02-16T12:14:44.856Z,20.25
2019-02-16T12:17:28.247Z,19.90
2019-02-16T12:19:59.084Z,19.63
2019-02-16T12:22:39.054Z,19.25
2019-02-16T12:25:09.771Z,21.95
2019-02-16T12:27:40.931Z,25.75
2019-02-16T12:30:15.203Z,26.12
2019-02-16T12:32:53.283Z,25.95
2019-02-16T12:35:30.202Z,29.82
2019-02-16T12:38:13.053Z,26.73
2019-02-16T12:40:49.805Z,31.77
2019-02-16T12:43:32.532Z,31.33
2019-02-16T12:46:15.695Z,25.88
2019-02-16T12:48:48.123Z,24.40
2019-02-16T12:51:25.215Z,24.23
2019-02-16T12:53:58.927Z,28.60
2019-02-16T12:56:32.591Z,28.52
2019-02-16T12:59:12.497Z,27.93
2019-02-16T13:01:52.274Z,27.98
2019-02-16T13:04:28.642Z,28.20
2019-02-16T13:07:08.288Z,25.82
2019-02-16T13:09:44.325Z,28.55
2019-02-16T13:12:37.343Z,28.40
2019-02-16T13:15:20.347Z,31.17
2019-02-16T13:18:15.662Z,33.42
2019-02-16T13:21:08.007Z,28.98
2019-02-16T13:23:41.736Z,31.48
2019-02-16T13:26:14.756Z,31.73
2019-02-16T13:28:47.657Z,35.40
2019-02-16T13:31:26.381Z,30.80
2019-02-16T13:34:13.276Z,29.32
2019-02-16T13:36:46.257Z,29.15
2019-02-16T13:39:28.620Z,29.13
2019-02-16T13:41:59.093Z,28.12
2019-02-16T13:44:29.411Z,27.15
2019-02-16T13:47:05.980Z,25.95
2019-02-16T13:49:38.856Z,26.17
2019-02-16T13:52:12.153Z,30.00
2019-02-16T13:54:42.579Z,28.02
2019-02-16T13:57:18.680Z,27.60
2019-02-16T14:00:05.090Z,24.92
2019-02-16T14:02:44.886Z,26.40
2019-02-16T14:05:27.690Z,14.47
2019-02-16T14:07:58.125Z,10.85
2019-02-16T14:10:40.997Z,9.95
2019-02-16T14:13:11.198Z,10.45
2019-02-16T14:15:47.495Z,8.98
2019-02-16T14:18:16.415Z,9.33
2019-02-16T14:20:45.428Z,10.23
2019-02-16T14:23:14.296Z,11.45
2019-02-16T14:25:45.585Z,11.25
2019-02-16T14:28:14.695Z,11.83
2019-02-16T14:30:43.496Z,13.18
2019-02-16T14:33:12.412Z,11.75
2019-02-16T14:35:41.112Z,11.95
2019-02-16T14:38:14.260Z,11.88
2019-02-16T14:40:43.377Z,15.30
2019-02-16T14:43:12.370Z,14.03
2019-02-16T14:45:41.947Z,15.05
2019-02-16T14:48:10.974Z,14.23
2019-02-16T14:50:39.691Z,12.78
2019-02-16T14:53:08.460Z,12.80
2019-02-16T14:55:37.265Z,16.40
2019-02-16T14:58:06.058Z,17.00
2019-02-16T15:00:34.861Z,13.78
2019-02-16T15:03:03.496Z,15.35
2019-02-16T15:05:32.205Z,15.65
2019-02-16T15:08:00.935Z,17.48
2019-02-16T15:10:29.655Z,18.48
2019-02-16T15:12:58.285Z,18.48
2019-02-16T15:15:27.020Z,16.25
2019-02-16T15:17:55.826Z,15.88
2019-02-16T15:20:24.680Z,18.37
2019-02-16T15:22:53.375Z,20.25
2019-02-16T15:25:22.561Z,19.55
2019-02-16T15:27:51.223Z,20.20
2019-02-16T15:30:21.460Z,19.90
2019-02-16T15:32:50.203Z,20.88
2019-02-16T15:35:20.509Z,20.00
2019-02-16T15:37:49.419Z,21.85
2019-02-16T15:40:18.107Z,19.07
2019-02-16T15:42:47.035Z,20.72
2019-02-16T15:45:15.815Z,21.95
2019-02-16T15:47:44.722Z,24.05
2019-02-16T15:50:15.341Z,24.12
2019-02-16T15:52:43.965Z,21.95
2019-02-16T15:55:13.256Z,20.57
2019-02-16T15:57:42.056Z,22.02
2019-02-16T16:00:20.578Z,23.85
2019-02-16T16:02:49.580Z,21.10
2019-02-16T16:05:18.375Z,24.32
2019-02-16T16:07:51.660Z,38.42
2019-02-16T16:10:22.072Z,36.08
2019-02-16T16:13:07.188Z,38.60
2019-02-16T16:15:44.831Z,31.52
2019-02-16T16:18:27.500Z,25.60
2019-02-16T16:21:02.017Z,39.78
2019-02-16T16:23:35.428Z,40.48
2019-02-16T16:26:21.736Z,60.67
2019-02-16T16:29:00.449Z,63.95
2019-02-16T16:31:24.185Z,39.45
2019-02-16T16:34:00.616Z,35.68
2019-02-16T16:36:33.901Z,44.10
2019-02-16T16:39:20.616Z,35.10
2019-02-16T16:41:51.096Z,20.77
2019-02-16T16:44:21.418Z,20.45
2019-02-16T16:46:52.209Z,23.80
2019-02-16T16:49:25.701Z,17.65
2019-02-16T16:52:05.186Z,31.73
2019-02-16T16:54:38.786Z,32.38
2019-02-16T16:57:09.106Z,32.93
2019-02-16T16:59:45.118Z,79.60
2019-02-16T17:02:31.337Z,52.98
2019-02-16T17:05:13.978Z,30.23
2019-02-16T17:07:45.011Z,21.55
2019-02-16T17:10:32.117Z,95.25
2019-02-16T17:13:09.205Z,63.28
2019-02-16T17:15:49.780Z,60.08
2019-02-16T17:18:23.015Z,24.40
2019-02-16T17:21:02.385Z,22.93
2019-02-16T17:23:32.775Z,20.72
2019-02-16T17:26:09.260Z,25.30
2019-02-16T17:28:40.615Z,27.15
2019-02-16T17:31:14.636Z,27.45
2019-02-16T17:34:00.955Z,25.90
2019-02-16T17:36:31.660Z,36.33
2019-02-16T17:39:12.300Z,52.17
2019-02-16T17:41:46.185Z,185.15
2019-02-16T17:47:07.177Z,191.15
2019-02-16T17:49:54.880Z,188.42
2019-02-16T17:52:42.321Z,165.25
2019-02-16T17:55:19.331Z,125.50
2019-02-16T17:57:51.018Z,99.32
2019-02-16T18:00:31.718Z,62.80
2019-02-16T18:03:02.755Z,44.13
2019-02-16T18:05:34.382Z,42.55
2019-02-16T18:08:14.701Z,38.42
2019-02-16T18:10:58.216Z,36.50
2019-02-16T18:13:35.015Z,47.08
2019-02-16T18:16:12.875Z,65.50
2019-02-16T18:18:43.329Z,87.57
2019-02-16T18:21:16.787Z,60.92
2019-02-16T18:23:50.075Z,50.92
2019-02-16T18:26:29.395Z,50.00
2019-02-16T18:29:19.107Z,55.23
2019-02-16T18:32:05.988Z,47.98
2019-02-16T18:34:53.886Z,42.85
2019-02-16T18:37:27.754Z,40.20
2019-02-16T18:42:49.210Z,49.83
2019-02-16T18:45:20.308Z,44.15
2019-02-16T18:48:07.751Z,54.00
2019-02-16T18:50:41.676Z,56.05
2019-02-16T18:53:29.718Z,72.92
2019-02-16T18:56:03.815Z,45.40
2019-02-16T18:58:37.433Z,48.05
2019-02-16T19:01:11.976Z,40.75
2019-02-16T19:03:46.236Z,43.90
2019-02-16T19:06:33.373Z,41.92
2019-02-16T19:09:22.536Z,40.17
2019-02-16T19:11:56.141Z,46.30
2019-02-16T19:14:30.134Z,50.50
2019-02-16T19:17:04.792Z,73.00
2019-02-16T19:19:42.451Z,63.92
2019-02-16T19:22:16.936Z,59.88
2019-02-16T19:24:52.775Z,69.70
2019-02-16T19:27:26.697Z,48.42
2019-02-16T19:29:58.315Z,40.48
2019-02-16T19:32:33.437Z,42.33
2019-02-16T19:35:07.508Z,46.10
2019-02-16T19:37:48.460Z,48.60
2019-02-16T19:40:22.621Z,131.15
2019-02-16T19:42:53.824Z,108.55
2019-02-16T19:45:31.501Z,102.50
2019-02-16T19:48:05.741Z,69.37
2019-02-16T19:50:49.269Z,101.65
2019-02-16T19:53:32.836Z,177.00
2019-02-16T19:56:20.785Z,143.07
2019-02-16T19:58:52.456Z,107.92
2019-02-16T20:01:24.135Z,91.42
2019-02-16T20:03:58.376Z,193.00
2019-02-16T20:06:30.389Z,172.20
2019-02-16T20:09:14.537Z,86.53
2019-02-16T20:12:01.576Z,78.92
2019-02-16T20:14:39.025Z,63.52
2019-02-16T20:17:19.020Z,53.30
2019-02-16T20:20:06.787Z,42.93
2019-02-16T20:22:38.436Z,41.95
2019-02-16T20:25:22.575Z,55.48
2019-02-16T20:28:00.144Z,51.58
2019-02-16T20:30:36.473Z,50.03
2019-02-16T20:33:10.485Z,50.30
2019-02-16T20:35:46.588Z,51.23
2019-02-16T20:38:17.027Z,50.20
2019-02-16T20:40:49.264Z,46.65
2019-02-16T20:43:20.936Z,38.45
2019-02-16T20:45:51.985Z,40.38
2019-02-16T20:48:29.414Z,55.43
2019-02-16T20:51:15.570Z,67.00
2019-02-16T20:53:48.349Z,71.07
2019-02-16T20:56:20.162Z,84.47
2019-02-16T20:58:51.815Z,69.17
2019-02-16T21:01:23.175Z,67.10
2019-02-16T21:03:53.584Z,70.10
2019-02-16T21:06:40.621Z,71.12
2019-02-16T21:09:27.350Z,77.25
2019-02-16T21:12:01.908Z,79.87
2019-02-16T21:14:46.239Z,82.62
2019-02-16T21:17:24.526Z,72.65
2019-02-16T21:20:01.647Z,80.07
2019-02-16T21:22:39.200Z,89.67
2019-02-16T21:25:16.195Z,93.17
2019-02-16T21:27:57.435Z,102.12
2019-02-16T21:30:20.225Z,91.82
2019-02-16T21:32:50.615Z,86.17
2019-02-16T21:35:20.937Z,82.92
2019-02-16T21:38:08.395Z,78.42
2019-02-16T21:40:38.710Z,77.90
2019-02-16T21:43:14.978Z,83.95
2019-02-16T21:45:46.928Z,78.55
2019-02-16T21:48:33.955Z,83.22
2019-02-16T21:51:16.597Z,91.02
2019-02-16T21:53:47.290Z,96.10
2019-02-16T21:56:17.921Z,98.07
2019-02-16T21:59:04.735Z,96.67
2019-02-16T22:01:41.489Z,82.62
2019-02-16T22:04:27.326Z,80.17
2019-02-16T22:06:57.915Z,82.05
2019-02-16T22:09:31.495Z,74.40
2019-02-16T22:12:04.499Z,76.30
2019-02-16T22:14:33.286Z,79.27
2019-02-16T22:17:02.181Z,105.32
2019-02-16T22:19:30.861Z,101.00
2019-02-16T22:21:59.645Z,101.38
2019-02-16T22:24:28.540Z,106.40
2019-02-16T22:26:57.256Z,112.92
2019-02-16T22:29:26.115Z,107.40
2019-02-16T22:31:54.895Z,105.83
2019-02-16T22:34:23.687Z,104.15
2019-02-16T22:36:52.469Z,106.55
2019-02-16T22:39:21.365Z,115.42
2019-02-16T22:41:50.098Z,105.78
2019-02-16T22:44:18.941Z,107.32
2019-02-16T22:46:47.660Z,112.32
2019-02-16T22:49:16.515Z,117.45
2019-02-16T22:51:45.192Z,121.30
2019-02-16T22:54:14.080Z,128.10
2019-02-16T22:56:42.771Z,123.97
2019-02-16T22:59:11.756Z,126.47
2019-02-16T23:01:40.461Z,120.22
2019-02-16T23:04:09.337Z,113.77
2019-02-16T23:06:38.006Z,134.90
2019-02-16T23:09:09.475Z,126.38
2019-02-16T23:11:38.363Z,126.10
2019-02-16T23:14:07.007Z,124.58
2019-02-16T23:16:35.936Z,135.48
2019-02-16T23:19:04.626Z,129.90
2019-02-16T23:21:33.486Z,122.70
2019-02-16T23:24:02.293Z,150.85
2019-02-16T23:26:30.977Z,175.05
2019-02-16T23:28:59.625Z,163.55
2019-02-16T23:31:28.639Z,154.07
2019-02-16T23:33:57.425Z,145.30
2019-02-16T23:36:26.323Z,141.30
2019-02-16T23:38:55.420Z,148.87
2019-02-16T23:41:24.226Z,132.20
2019-02-16T23:43:53.301Z,132.97
2019-02-16T23:46:22.075Z,132.32
2019-02-16T23:48:50.942Z,129.38
2019-02-16T23:51:19.987Z,122.10
2019-02-16T23:53:48.675Z,130.03
2019-02-16T23:56:17.586Z,129.15
2019-02-16T23:58:49.164Z,124.40
